Flinterborg — PHPH — position and weather

sailwx.info

Track history (hours):
 
Tides and Currents Weather Stations Pressure Air Temp Water Temp Dewpoint Dewpoint Depression Visibility Wind Speed Wind Dir Waves Ship Positions

Flinterborg

Last reported at 2016-May-27 18:18 UTC. Time now 2016-May-28 07:59 UTC.
Position N 36°29' W 001°18'.

Length 111 m; draft 6.4 m.

Type: Ship. MMSI: 245433000.

Date/timePositionNaut miles runAvg speedWind from/ knotsBaromVisibWave heightAir tempDewpointWater temp
2016-May-27 18:18N 36°29' W 001°18'19811.8
2016-May-27 01:33N 35°59' W 005°20'  
2016-May-22 22:04N 49°44' W 003°31'510.9
2016-May-22 21:33N 49°47' W 003°24'1010.1
2016-May-22 20:34N 49°52' W 003°10'9 9.3
2016-May-22 19:33N 49°56' W 002°58'9 9.0
2016-May-22 18:33N 49°59' W 002°45'8812.4
2016-May-22 11:29N 50°25' W 000°33'1010.6
2016-May-22 10:33N 50°28' W 000°19'10 9.8
2016-May-22 09:30N 50°31' W 000°03'9 9.2
2016-May-22 08:33N 50°34' E 000°10'4811.0
2016-May-22 04:13N 50°58' E 001°15'711.1
2016-May-22 03:33N 51°03' E 001°24'10 9.8
2016-May-22 02:33N 51°09' E 001°36'8 8.5
2016-May-22 01:34N 51°15' E 001°46'9 8.6
2016-May-22 00:33N 51°22' E 001°54'8 8.4
2016-May-21 23:33N 51°23' E 002°07'10 9.9
2016-May-21 22:32N 51°22' E 002°23'1211.1
2016-May-21 21:25N 51°22' E 002°43'1112.4
2016-May-21 20:31N 51°24' E 003°01'1212.1
2016-May-21 19:33N 51°24' E 003°20'1212.4
2016-May-21 18:34N 51°26' E 003°39'1111.3
2016-May-21 17:34N 51°23' E 003°56'9 8.5
2016-May-21 16:33N 51°23' E 004°10'5 4.8
2016-May-21 15:30N 51°21' E 004°17'0 0.0
2016-May-21 14:33N 51°21' E 004°17'1 0.1
2016-May-21 07:29N 51°22' E 004°17'0 0.0
2016-May-21 00:17N 51°22' E 004°17'0 0.0
2016-May-20 23:32N 51°22' E 004°17'0 0.0
2016-May-20 22:22N 51°22' E 004°17'0 0.0
2016-May-20 18:24N 51°22' E 004°17'0 0.0
2016-May-20 16:08N 51°22' E 004°17'0 0.0
2016-May-20 15:31N 51°22' E 004°17'0 0.0
2016-May-20 13:24N 51°22' E 004°17'0 0.0
2016-May-20 12:24N 51°22' E 004°17'0 0.0
2016-May-20 11:08N 51°22' E 004°17'0 0.0
2016-May-20 00:22N 51°22' E 004°17'0 0.0
2016-May-19 23:21N 51°22' E 004°17'0 0.0
2016-May-19 22:21N 51°22' E 004°17'0 0.0
2016-May-19 21:18N 51°22' E 004°17'3 4.1
2016-May-19 20:33N 51°19' E 004°19'4 3.8
2016-May-19 19:30N 51°16' E 004°23'0 0.0
2016-May-19 18:30N 51°16' E 004°23'0 0.0
2016-May-19 17:33N 51°16' E 004°23'0 0.0
2016-May-19 16:32N 51°16' E 004°23'0 0.0
2016-May-19 15:32N 51°16' E 004°23'0 0.0
2016-May-19 14:30N 51°16' E 004°23'0 0.0
2016-May-19 13:23N 51°16' E 004°23'0 0.0
2016-May-19 12:25N 51°16' E 004°23'0 0.0
2016-May-19 11:31N 51°16' E 004°23'0 0.0
2016-May-19 10:24N 51°16' E 004°23'0 0.0
2016-May-19 09:32N 51°16' E 004°23'0 0.0
2016-May-19 08:26N 51°16' E 004°23'0 0.0
2016-May-19 07:26N 51°16' E 004°23'0 0.0
2016-May-19 06:26N 51°16' E 004°23'0 0.0
2016-May-19 04:25N 51°16' E 004°23'0 0.0
2016-May-19 03:33N 51°16' E 004°23'0 0.0
2016-May-19 02:27N 51°16' E 004°23'0 0.0
2016-May-19 01:33N 51°16' E 004°23'3 3.0
2016-May-19 00:33N 51°18' E 004°20'3 3.3
2016-May-18 23:33N 51°21' E 004°17'0 0.0
2016-May-18 22:33N 51°21' E 004°17'2 2.2
2016-May-18 21:33N 51°21' E 004°14'7 6.6
2016-May-18 20:33N 51°22' E 004°04'4 4.2
2016-May-18 19:33N 51°23' E 003°57'9 9.3
2016-May-18 18:33N 51°24' E 003°42'9 9.4
2016-May-18 17:33N 51°25' E 003°27'9 9.3
2016-May-18 16:33N 51°24' E 003°12'10 9.7
2016-May-18 15:33N 51°23' E 002°57'11 9.0
2016-May-18 14:22N 51°22' E 002°40'5 5.4
2016-May-18 13:21N 51°22' E 002°31'6 7.2
2016-May-18 12:33N 51°20' E 002°22'10 9.7
2016-May-18 11:33N 51°15' E 002°09'9 9.3
2016-May-18 10:33N 51°11' E 001°56'9 9.4
2016-May-18 09:33N 51°05' E 001°44'10 9.8
2016-May-18 08:30N 50°58' E 001°32'51 9.8
2016-May-18 03:19N 50°25' E 000°30'810.5
2016-May-18 02:31N 50°23' E 000°18'1010.2
2016-May-18 01:33N 50°21' E 000°03'10 9.8
2016-May-18 00:33N 50°18' W 000°12'10 9.5
2016-May-17 23:30N 50°16' W 000°27'9 9.5
2016-May-17 22:33N 50°13' W 000°41'  
Track history (hours):
 
Tides and Currents Weather Stations Pressure Air Temp Water Temp Dewpoint Dewpoint Depression Visibility Wind Speed Wind Dir Waves Ship Positions

Flinterborg

Last reported at 2016-May-27 18:18 UTC. Time now 2016-May-28 07:59 UTC.
Position N 36°29' W 001°18'.

Length 111 m; draft 6.4 m.

Type: Ship. MMSI: 245433000.

Date/timePositionNaut miles runAvg speedWind from/ knotsBaromVisibWave heightAir tempDewpointWater temp
2016-May-27 18:18N 36°29' W 001°18'19811.8
2016-May-27 01:33N 35°59' W 005°20'  
2016-May-22 22:04N 49°44' W 003°31'510.9
2016-May-22 21:33N 49°47' W 003°24'1010.1
2016-May-22 20:34N 49°52' W 003°10'9 9.3
2016-May-22 19:33N 49°56' W 002°58'9 9.0
2016-May-22 18:33N 49°59' W 002°45'8812.4
2016-May-22 11:29N 50°25' W 000°33'1010.6
2016-May-22 10:33N 50°28' W 000°19'10 9.8
2016-May-22 09:30N 50°31' W 000°03'9 9.2
2016-May-22 08:33N 50°34' E 000°10'4811.0
2016-May-22 04:13N 50°58' E 001°15'711.1
2016-May-22 03:33N 51°03' E 001°24'10 9.8
2016-May-22 02:33N 51°09' E 001°36'8 8.5
2016-May-22 01:34N 51°15' E 001°46'9 8.6
2016-May-22 00:33N 51°22' E 001°54'8 8.4
2016-May-21 23:33N 51°23' E 002°07'10 9.9
2016-May-21 22:32N 51°22' E 002°23'1211.1
2016-May-21 21:25N 51°22' E 002°43'1112.4
2016-May-21 20:31N 51°24' E 003°01'1212.1
2016-May-21 19:33N 51°24' E 003°20'1212.4
2016-May-21 18:34N 51°26' E 003°39'1111.3
2016-May-21 17:34N 51°23' E 003°56'9 8.5
2016-May-21 16:33N 51°23' E 004°10'5 4.8
2016-May-21 15:30N 51°21' E 004°17'0 0.0
2016-May-21 14:33N 51°21' E 004°17'1 0.1
2016-May-21 07:29N 51°22' E 004°17'0 0.0
2016-May-21 00:17N 51°22' E 004°17'0 0.0
2016-May-20 23:32N 51°22' E 004°17'0 0.0
2016-May-20 22:22N 51°22' E 004°17'0 0.0
2016-May-20 18:24N 51°22' E 004°17'0 0.0
2016-May-20 16:08N 51°22' E 004°17'0 0.0
2016-May-20 15:31N 51°22' E 004°17'0 0.0
2016-May-20 13:24N 51°22' E 004°17'0 0.0
2016-May-20 12:24N 51°22' E 004°17'0 0.0
2016-May-20 11:08N 51°22' E 004°17'0 0.0
2016-May-20 00:22N 51°22' E 004°17'0 0.0
2016-May-19 23:21N 51°22' E 004°17'0 0.0
2016-May-19 22:21N 51°22' E 004°17'0 0.0
2016-May-19 21:18N 51°22' E 004°17'3 4.1
2016-May-19 20:33N 51°19' E 004°19'4 3.8
2016-May-19 19:30N 51°16' E 004°23'0 0.0
2016-May-19 18:30N 51°16' E 004°23'0 0.0
2016-May-19 17:33N 51°16' E 004°23'0 0.0
2016-May-19 16:32N 51°16' E 004°23'0 0.0
2016-May-19 15:32N 51°16' E 004°23'0 0.0
2016-May-19 14:30N 51°16' E 004°23'0 0.0
2016-May-19 13:23N 51°16' E 004°23'0 0.0
2016-May-19 12:25N 51°16' E 004°23'0 0.0
2016-May-19 11:31N 51°16' E 004°23'0 0.0
2016-May-19 10:24N 51°16' E 004°23'0 0.0
2016-May-19 09:32N 51°16' E 004°23'0 0.0
2016-May-19 08:26N 51°16' E 004°23'0 0.0
2016-May-19 07:26N 51°16' E 004°23'0 0.0
2016-May-19 06:26N 51°16' E 004°23'0 0.0
2016-May-19 04:25N 51°16' E 004°23'0 0.0
2016-May-19 03:33N 51°16' E 004°23'0 0.0
2016-May-19 02:27N 51°16' E 004°23'0 0.0
2016-May-19 01:33N 51°16' E 004°23'3 3.0
2016-May-19 00:33N 51°18' E 004°20'3 3.3
2016-May-18 23:33N 51°21' E 004°17'0 0.0
2016-May-18 22:33N 51°21' E 004°17'2 2.2
2016-May-18 21:33N 51°21' E 004°14'7 6.6
2016-May-18 20:33N 51°22' E 004°04'4 4.2
2016-May-18 19:33N 51°23' E 003°57'9 9.3
2016-May-18 18:33N 51°24' E 003°42'9 9.4
2016-May-18 17:33N 51°25' E 003°27'9 9.3
2016-May-18 16:33N 51°24' E 003°12'10 9.7
2016-May-18 15:33N 51°23' E 002°57'11 9.0
2016-May-18 14:22N 51°22' E 002°40'5 5.4
2016-May-18 13:21N 51°22' E 002°31'6 7.2
2016-May-18 12:33N 51°20' E 002°22'10 9.7
2016-May-18 11:33N 51°15' E 002°09'9 9.3
2016-May-18 10:33N 51°11' E 001°56'9 9.4
2016-May-18 09:33N 51°05' E 001°44'10 9.8
2016-May-18 08:30N 50°58' E 001°32'51 9.8
2016-May-18 03:19N 50°25' E 000°30'810.5
2016-May-18 02:31N 50°23' E 000°18'1010.2
2016-May-18 01:33N 50°21' E 000°03'10 9.8
2016-May-18 00:33N 50°18' W 000°12'10 9.5
2016-May-17 23:30N 50°16' W 000°27'9 9.5
2016-May-17 22:33N 50°13' W 000°41'  

Dump ship's entire track history